Time;durP1;ratioP1;P1;durP2;ratioP2;P2;SDS_P1;SDS_P2;PMS_P1;PMS_P2;Temp;Humidity;BMP_temperature;BMP_pressure;BME280_temperature;BME280_humidity;BME280_pressure;Samples;Min_cycle;Max_cycle;Signal;HPM_P1;HPM_P2
2022/03/13 00:00:13;;;;;;;8.40;6.53;;;;;;;-0.08;34.09;100147.19;4932716;29;20301;-84
2022/03/13 00:02:40;;;;;;;7.93;5.57;;;;;;;-0.19;34.48;100134.19;4931473;29;20234;-83
2022/03/13 00:05:10;;;;;;;8.33;6.13;;;;;;;-0.26;34.38;100138.31;4931368;29;20237;-83
2022/03/13 00:07:38;;;;;;;9.10;5.60;;;;;;;-0.29;34.67;100143.03;4933849;29;20233;-83
2022/03/13 00:10:11;;;;;;;10.40;6.23;;;;;;;-0.28;34.77;100136.81;4932372;29;20257;-84
2022/03/13 00:12:39;;;;;;;9.77;6.13;;;;;;;-0.33;34.81;100137.22;4934626;29;20234;-83
2022/03/13 00:15:09;;;;;;;7.27;5.63;;;;;;;-0.28;35.11;100131.53;4933440;29;20267;-83
2022/03/13 00:17:35;;;;;;;9.80;5.80;;;;;;;-0.28;34.90;100131.53;4932840;29;20237;-83
2022/03/13 00:20:05;;;;;;;8.90;6.33;;;;;;;-0.29;34.92;100143.03;4931670;29;20248;-84
2022/03/13 00:22:33;;;;;;;8.90;6.00;;;;;;;-0.39;35.11;100145.66;4921787;29;20277;-83
2022/03/13 00:25:06;;;;;;;8.23;6.50;;;;;;;-0.46;35.73;100152.44;4921750;29;20240;-83
2022/03/13 00:27:34;;;;;;;10.67;6.50;;;;;;;-0.45;35.35;100133.88;4937655;29;20265;-83
2022/03/13 00:30:04;;;;;;;8.77;6.20;;;;;;;-0.39;35.28;100143.03;4937135;29;20238;-84
2022/03/13 00:32:31;;;;;;;9.70;6.40;;;;;;;-0.63;35.63;100122.34;4936678;29;20269;-83
2022/03/13 00:34:59;;;;;;;8.27;6.30;;;;;;;-0.58;35.60;100121.94;4920857;29;20262;-83
2022/03/13 00:37:25;;;;;;;9.00;6.03;;;;;;;-0.58;35.70;100128.06;4937558;29;20265;-83
2022/03/13 00:39:54;;;;;;;10.07;6.70;;;;;;;-0.66;35.85;100114.75;4936675;29;20681;-83
2022/03/13 00:42:24;;;;;;;9.10;5.97;;;;;;;-0.57;35.95;100126.25;4934806;29;20234;-83
2022/03/13 00:44:51;;;;;;;9.00;5.93;;;;;;;-0.61;35.92;100117.81;4935839;29;20241;-84
2022/03/13 00:47:19;;;;;;;9.67;6.40;;;;;;;-0.70;35.98;100109.91;4935442;29;20285;-83
2022/03/13 00:49:47;;;;;;;9.77;6.93;;;;;;;-0.80;36.41;100109.03;4936029;29;20234;-84
2022/03/13 00:52:16;;;;;;;7.73;6.47;;;;;;;-0.78;36.24;100110.56;4934215;29;20241;-83
2022/03/13 00:54:44;;;;;;;10.43;6.80;;;;;;;-0.89;36.45;100111.50;4936320;29;20258;-84
2022/03/13 00:57:11;;;;;;;8.77;6.57;;;;;;;-0.96;36.88;100106.91;4937757;29;20254;-84
2022/03/13 00:59:38;;;;;;;9.93;6.63;;;;;;;-0.87;36.73;100106.09;4935914;29;20309;-84
2022/03/13 01:02:05;;;;;;;9.23;6.73;;;;;;;-0.88;36.74;100109.69;4934678;29;20332;-83
2022/03/13 01:04:33;;;;;;;11.20;7.50;;;;;;;-0.86;36.72;100105.13;4931436;29;20317;-83
2022/03/13 01:07:03;;;;;;;9.00;6.10;;;;;;;-0.90;36.67;100101.97;4919513;29;20226;-83
2022/03/13 01:09:30;;;;;;;9.17;7.00;;;;;;;-1.03;36.95;100087.38;4919668;29;20254;-83
2022/03/13 01:11:57;;;;;;;8.93;6.80;;;;;;;-1.05;37.15;100089.31;4929345;29;20238;-84
2022/03/13 01:14:24;;;;;;;8.63;6.50;;;;;;;-1.03;37.25;100090.84;4899295;29;20235;-83
2022/03/13 01:17:02;;;;;;;10.60;6.93;;;;;;;-0.96;36.54;100083.25;4908060;29;20258;-84
2022/03/13 01:19:30;;;;;;;8.47;6.57;;;;;;;-0.99;36.58;100079.09;4908368;29;20237;-83
2022/03/13 01:21:57;;;;;;;9.97;6.83;;;;;;;-0.92;36.71;100090.72;4937780;29;20248;-83
2022/03/13 01:24:29;;;;;;;9.17;6.83;;;;;;;-0.89;36.41;100092.28;4936689;29;20224;-84
2022/03/13 01:27:02;;;;;;;9.33;6.63;;;;;;;-0.95;36.31;100087.53;4936018;29;20245;-83
2022/03/13 01:29:31;;;;;;;9.37;7.07;;;;;;;-0.90;36.75;100083.53;4932050;29;20294;-84
2022/03/13 01:31:59;;;;;;;11.67;7.00;;;;;;;-0.90;36.33;100087.97;4917364;29;20246;-83
2022/03/13 01:34:35;;;;;;;8.97;7.00;;;;;;;-0.79;36.54;100081.75;4923460;29;20272;-84
2022/03/13 01:37:04;;;;;;;10.73;7.10;;;;;;;-0.85;36.71;100075.25;4921631;29;20237;-83
2022/03/13 01:39:31;;;;;;;8.60;6.53;;;;;;;-0.82;36.52;100077.59;4926914;29;20242;-83
2022/03/13 01:41:58;;;;;;;9.33;6.93;;;;;;;-0.94;37.43;100063.75;4919248;29;20262;-83
2022/03/13 01:44:26;;;;;;;10.23;7.00;;;;;;;-0.99;37.31;100065.94;4924235;29;20724;-84
2022/03/13 01:46:53;;;;;;;9.27;6.83;;;;;;;-0.93;36.43;100052.22;4919381;29;20231;-84
2022/03/13 01:49:21;;;;;;;9.47;7.00;;;;;;;-0.96;36.53;100054.31;4888825;29;20235;-84
2022/03/13 01:51:48;;;;;;;8.43;6.50;;;;;;;-0.84;36.28;100053.22;4932399;29;20230;-83
2022/03/13 01:54:15;;;;;;;8.57;7.10;;;;;;;-0.75;35.84;100054.22;4932692;29;20244;-83
2022/03/13 01:56:42;;;;;;;8.67;6.70;;;;;;;-0.73;36.11;100052.25;4933719;29;20278;-83
2022/03/13 01:59:10;;;;;;;10.23;7.03;;;;;;;-0.66;35.92;100054.22;4934612;29;20238;-83
2022/03/13 02:01:38;;;;;;;10.83;7.03;;;;;;;-0.63;36.06;100059.19;4935817;29;20238;-84
2022/03/13 02:04:06;;;;;;;9.33;7.03;;;;;;;-0.58;35.65;100053.53;4935384;29;20242;-84
2022/03/13 02:06:34;;;;;;;8.57;6.73;;;;;;;-0.60;35.71;100045.75;4932299;29;20242;-84
2022/03/13 02:09:05;;;;;;;8.77;6.47;;;;;;;-0.51;35.65;100049.34;4928691;29;20297;-83
2022/03/13 02:11:40;;;;;;;9.80;6.87;;;;;;;-0.45;35.04;100054.91;4918129;29;20234;-84
2022/03/13 02:14:10;;;;;;;8.03;6.43;;;;;;;-0.38;35.13;100046.47;4910808;29;20248;-83
2022/03/13 02:16:37;;;;;;;7.90;6.47;;;;;;;-0.57;35.67;100042.88;4924723;29;20243;-84
2022/03/13 02:19:06;;;;;;;11.77;7.03;;;;;;;-0.55;35.60;100042.72;4918589;29;20223;-84
2022/03/13 02:21:40;;;;;;;9.20;6.70;;;;;;;-0.65;35.79;100042.69;4927771;29;20238;-84
2022/03/13 02:24:13;;;;;;;9.90;6.90;;;;;;;-0.64;35.59;100049.63;4936547;29;20308;-83
2022/03/13 02:26:42;;;;;;;8.90;6.90;;;;;;;-0.64;35.77;100047.00;4923554;29;20239;-83
2022/03/13 02:29:14;;;;;;;10.37;6.53;;;;;;;-0.52;35.70;100043.28;4918165;29;20232;-83
2022/03/13 02:31:42;;;;;;;10.50;6.40;;;;;;;-0.65;35.73;100039.22;4918435;29;20274;-83
2022/03/13 02:34:14;;;;;;;9.63;6.83;;;;;;;-0.76;36.41;100034.13;4934332;29;20294;-83
2022/03/13 02:36:56;;;;;;;9.70;7.23;;;;;;;-0.64;35.77;100035.63;4918991;29;20242;-84
2022/03/13 02:39:24;;;;;;;8.97;6.77;;;;;;;-0.50;35.40;100027.31;4926266;29;20245;-84
2022/03/13 02:41:51;;;;;;;8.73;6.70;;;;;;;-0.43;34.95;100015.28;4932896;29;20243;-83
2022/03/13 02:44:18;;;;;;;12.10;7.13;;;;;;;-0.21;34.42;100029.94;4925582;29;20253;-83
2022/03/13 02:46:48;;;;;;;8.83;6.23;;;;;;;-0.13;34.30;100022.16;4934675;29;20230;-83
2022/03/13 02:49:18;;;;;;;8.90;6.40;;;;;;;-0.15;34.14;100024.94;4918518;29;20235;-83
2022/03/13 02:51:47;;;;;;;10.77;7.00;;;;;;;-0.18;34.29;100038.38;4920401;29;20242;-84
2022/03/13 02:54:15;;;;;;;8.67;6.50;;;;;;;-0.15;34.74;100032.84;4933888;29;20234;-83
2022/03/13 02:56:45;;;;;;;11.27;7.03;;;;;;;-0.33;35.57;100031.06;4925893;29;20238;-84
2022/03/13 02:59:13;;;;;;;9.40;6.60;;;;;;;-0.29;35.60;100037.72;4898796;29;20239;-83
2022/03/13 03:01:41;;;;;;;10.10;7.07;;;;;;;-0.39;35.76;100029.81;4911313;29;20234;-83
2022/03/13 03:04:08;;;;;;;9.60;6.63;;;;;;;-0.43;35.88;100028.44;4916013;29;20242;-84
2022/03/13 03:06:37;;;;;;;9.20;6.63;;;;;;;-0.45;35.72;100030.38;4916121;29;20321;-84
2022/03/13 03:09:06;;;;;;;9.60;6.80;;;;;;;-0.63;36.37;100038.16;4915271;29;20252;-84
2022/03/13 03:11:34;;;;;;;8.63;6.57;;;;;;;-0.67;36.59;100043.81;4914045;29;20238;-83
2022/03/13 03:14:04;;;;;;;11.30;7.43;;;;;;;-0.79;36.78;100040.47;4912528;29;20231;-84
2022/03/13 03:16:31;;;;;;;9.03;6.80;;;;;;;-0.85;36.81;100035.78;4915460;29;20227;-83
2022/03/13 03:18:58;;;;;;;9.17;6.63;;;;;;;-0.94;37.33;100040.06;4915657;29;20298;-83
2022/03/13 03:21:26;;;;;;;10.07;6.87;;;;;;;-1.01;37.73;100040.72;4915159;29;20267;-83
2022/03/13 03:23:53;;;;;;;8.97;6.60;;;;;;;-1.14;38.03;100022.59;4913532;29;20239;-84
2022/03/13 03:26:24;;;;;;;9.80;6.90;;;;;;;-1.06;38.52;100045.56;4911351;29;20242;-83
2022/03/13 03:28:51;;;;;;;8.93;7.30;;;;;;;-1.26;39.72;100036.00;4895753;29;20286;-83
2022/03/13 03:31:19;;;;;;;11.67;7.33;;;;;;;-1.17;40.18;100043.06;4911843;29;20674;-84
2022/03/13 03:33:46;;;;;;;10.93;8.27;;;;;;;-1.41;40.96;100030.28;4910149;29;20310;-84
2022/03/13 03:36:14;;;;;;;11.20;7.37;;;;;;;-1.43;40.87;100029.56;4908996;29;20246;-83
2022/03/13 03:38:41;;;;;;;10.67;7.83;;;;;;;-1.54;41.34;100019.97;4909947;29;20231;-83
2022/03/13 03:41:08;;;;;;;10.10;7.63;;;;;;;-1.58;41.45;100029.09;4911279;29;20322;-83
2022/03/13 03:43:39;;;;;;;10.30;7.90;;;;;;;-1.59;41.74;100034.50;4912275;29;20246;-84
2022/03/13 03:46:13;;;;;;;10.97;7.93;;;;;;;-1.70;42.02;100021.44;4911017;29;20294;-83
2022/03/13 03:48:40;;;;;;;11.10;7.60;;;;;;;-1.61;42.02;100023.28;4912986;29;20234;-83
2022/03/13 03:51:06;;;;;;;9.87;6.83;;;;;;;-1.79;41.91;100025.69;4913386;29;20235;-84
2022/03/13 03:53:33;;;;;;;9.40;6.90;;;;;;;-1.74;41.74;100028.75;4913149;29;20793;-84
2022/03/13 03:56:02;;;;;;;9.90;7.00;;;;;;;-1.82;42.23;100032.03;4912756;29;20237;-84
2022/03/13 03:58:29;;;;;;;10.93;7.37;;;;;;;-1.77;42.07;100034.25;4914710;29;20254;-83
2022/03/13 04:00:57;;;;;;;9.00;7.27;;;;;;;-1.82;41.99;100039.09;4913377;29;20237;-84
2022/03/13 04:03:25;;;;;;;10.17;7.17;;;;;;;-1.91;42.05;100037.22;4912385;29;20246;-82
2022/03/13 04:05:52;;;;;;;11.30;8.17;;;;;;;-1.96;42.27;100045.50;4931742;29;20257;-82
2022/03/13 04:08:20;;;;;;;9.40;6.80;;;;;;;-2.07;42.25;100044.75;4927224;29;20246;-81
2022/03/13 04:10:46;;;;;;;10.17;7.30;;;;;;;-2.08;42.35;100049.16;4928396;29;20234;-82
2022/03/13 04:13:13;;;;;;;10.03;7.27;;;;;;;-2.12;42.34;100047.75;4932878;29;20234;-81
2022/03/13 04:15:40;;;;;;;9.67;6.80;;;;;;;-2.10;42.20;100043.19;4928296;29;20241;-82
2022/03/13 04:18:10;;;;;;;10.40;6.93;;;;;;;-2.24;42.67;100052.22;4930951;29;20265;-81
2022/03/13 04:20:36;;;;;;;10.63;7.47;;;;;;;-2.11;42.43;100044.19;4915776;29;20227;-82
2022/03/13 04:23:04;;;;;;;10.57;7.30;;;;;;;-2.08;42.60;100050.97;4923694;29;20238;-82
2022/03/13 04:25:31;;;;;;;11.20;7.00;;;;;;;-2.08;42.36;100043.91;4926188;29;20233;-82
2022/03/13 04:27:58;;;;;;;10.47;7.13;;;;;;;-2.19;42.81;100041.34;4915724;29;20246;-82
2022/03/13 04:30:29;;;;;;;10.03;6.80;;;;;;;-2.10;42.61;100042.41;4918346;29;20262;-83
2022/03/13 04:32:57;;;;;;;9.27;6.23;;;;;;;-2.26;42.69;100032.34;4926973;29;20241;-82
2022/03/13 04:35:24;;;;;;;10.13;7.13;;;;;;;-2.12;42.58;100036.44;4902779;29;20245;-82
2022/03/13 04:37:51;;;;;;;10.47;7.47;;;;;;;-2.12;42.66;100052.19;4926631;29;20265;-81
2022/03/13 04:40:18;;;;;;;10.60;7.33;;;;;;;-2.09;42.46;100034.38;4917534;29;20329;-81
2022/03/13 04:42:46;;;;;;;11.30;7.60;;;;;;;-2.11;42.40;100045.97;4894008;29;20235;-81
2022/03/13 04:45:13;;;;;;;9.17;7.10;;;;;;;-2.26;42.61;100032.34;4925726;29;20246;-82
2022/03/13 04:47:40;;;;;;;9.47;7.13;;;;;;;-2.23;42.73;100043.41;4919893;29;20263;-81
2022/03/13 04:50:07;;;;;;;9.93;6.63;;;;;;;-2.09;42.58;100050.13;4910969;29;20242;-83
2022/03/13 04:52:34;;;;;;;11.17;7.33;;;;;;;-2.25;42.64;100040.09;4920361;29;20261;-81
2022/03/13 04:55:02;;;;;;;10.77;7.63;;;;;;;-2.26;42.59;100048.91;4928578;29;20292;-82
2022/03/13 04:57:29;;;;;;;8.83;6.73;;;;;;;-2.31;43.09;100050.25;4928865;29;20274;-82
2022/03/13 04:59:56;;;;;;;11.97;7.10;;;;;;;-2.26;42.72;100055.97;4932547;29;20260;-82
2022/03/13 05:02:23;;;;;;;10.93;7.27;;;;;;;-2.24;42.55;100040.94;4931580;29;20234;-81
2022/03/13 05:04:50;;;;;;;9.67;7.43;;;;;;;-2.29;42.59;100054.41;4928102;29;20234;-81
2022/03/13 05:07:19;;;;;;;9.07;7.10;;;;;;;-2.22;42.62;100052.13;4932352;29;20240;-82
2022/03/13 05:09:46;;;;;;;9.93;7.17;;;;;;;-2.23;42.63;100047.81;4915862;29;20266;-81
2022/03/13 05:12:14;;;;;;;11.30;7.13;;;;;;;-2.20;42.55;100044.97;4924930;29;20231;-81
2022/03/13 05:14:41;;;;;;;9.03;6.57;;;;;;;-2.18;42.21;100050.06;4933890;29;20234;-82
2022/03/13 05:17:08;;;;;;;10.00;7.03;;;;;;;-2.27;42.58;100054.28;4935666;29;20230;-81
2022/03/13 05:19:35;;;;;;;9.67;6.77;;;;;;;-2.12;42.25;100066.16;4935845;29;20252;-81
2022/03/13 05:22:02;;;;;;;9.87;6.90;;;;;;;-2.04;41.68;100055.81;4925452;29;20241;-81
2022/03/13 05:24:29;;;;;;;8.93;7.30;;;;;;;-2.09;41.66;100065.88;4927848;29;20245;-81
2022/03/13 05:26:56;;;;;;;10.27;7.10;;;;;;;-1.96;41.28;100063.06;4921064;29;20295;-82
2022/03/13 05:29:23;;;;;;;10.70;7.43;;;;;;;-1.82;40.99;100058.28;4914589;29;20298;-81
2022/03/13 05:31:50;;;;;;;9.13;6.87;;;;;;;-1.82;40.69;100063.53;4910099;29;20242;-82
2022/03/13 05:34:17;;;;;;;10.13;7.40;;;;;;;-1.84;40.67;100067.28;4933779;29;20234;-82
2022/03/13 05:36:46;;;;;;;10.13;6.90;;;;;;;-1.86;40.81;100059.50;4905615;29;20297;-82
2022/03/13 05:39:13;;;;;;;11.03;8.03;;;;;;;-1.84;40.93;100059.41;4919125;29;20239;-82
2022/03/13 05:41:40;;;;;;;11.33;7.67;;;;;;;-1.63;40.79;100065.44;4922763;29;20245;-84
2022/03/13 05:44:12;;;;;;;10.13;7.00;;;;;;;-1.57;40.27;100071.97;4934312;29;20248;-84
2022/03/13 05:46:40;;;;;;;9.97;7.30;;;;;;;-1.51;40.48;100069.66;4918212;29;20245;-82
2022/03/13 05:49:08;;;;;;;11.23;7.40;;;;;;;-1.35;40.48;100074.41;4931998;29;20234;-82
2022/03/13 05:51:41;;;;;;;8.63;7.10;;;;;;;-1.33;40.17;100069.84;4932633;29;20242;-81
2022/03/13 05:54:10;;;;;;;10.30;7.77;;;;;;;-1.22;39.95;100077.66;4932076;29;20297;-81
2022/03/13 05:56:38;;;;;;;11.17;7.73;;;;;;;-1.21;40.00;100070.59;4910688;29;20241;-82
2022/03/13 05:59:06;;;;;;;10.10;7.30;;;;;;;-1.02;39.28;100075.88;4901266;29;20231;-82
2022/03/13 06:01:33;;;;;;;9.57;7.60;;;;;;;-0.88;38.84;100071.06;4923275;29;20246;-82
2022/03/13 06:04:00;;;;;;;11.07;7.83;;;;;;;-0.71;38.74;100079.28;4925975;29;20246;-81
2022/03/13 06:06:27;;;;;;;10.47;7.30;;;;;;;-0.54;38.36;100081.22;4921242;29;20282;-81
2022/03/13 06:08:56;;;;;;;10.53;7.27;;;;;;;-0.47;37.59;100077.09;4919393;29;20749;-82
2022/03/13 06:11:23;;;;;;;10.33;7.57;;;;;;;-0.26;37.45;100085.66;4925485;29;20230;-82
2022/03/13 06:13:49;;;;;;;10.60;7.13;;;;;;;-0.27;37.86;100091.06;4926247;29;20262;-82
2022/03/13 06:16:18;;;;;;;11.47;8.27;;;;;;;-0.32;39.08;100085.38;4925432;29;20242;-81
2022/03/13 06:18:46;;;;;;;11.83;8.47;;;;;;;-0.23;39.37;100095.91;4924702;29;20227;-82
2022/03/13 06:21:14;;;;;;;12.17;7.53;;;;;;;-0.13;38.97;100104.63;4922547;29;20215;-82
2022/03/13 06:23:41;;;;;;;10.57;8.10;;;;;;;-0.12;39.37;100095.78;4935701;29;20246;-82
2022/03/13 06:26:09;;;;;;;14.03;8.37;;;;;;;-0.15;39.43;100088.16;4928741;29;20756;-81
2022/03/13 06:28:36;;;;;;;11.80;7.67;;;;;;;-0.03;39.56;100110.72;4908141;29;20230;-81
2022/03/13 06:31:03;;;;;;;9.80;7.87;;;;;;;-0.12;39.64;100103.66;4924914;29;20317;-81
2022/03/13 06:33:30;;;;;;;10.93;8.10;;;;;;;-0.15;39.71;100090.78;4932876;29;20301;-82
2022/03/13 06:35:57;;;;;;;13.43;8.57;;;;;;;-0.04;39.64;100101.16;4926577;29;20251;-82
2022/03/13 06:38:25;;;;;;;13.33;8.30;;;;;;;0.10;38.75;100102.53;4925058;29;20252;-81
2022/03/13 06:40:52;;;;;;;9.97;7.80;;;;;;;0.11;39.08;100092.81;4923747;29;20231;-82
2022/03/13 06:43:19;;;;;;;12.90;8.80;;;;;;;0.29;38.67;100091.09;4914259;29;20246;-82
2022/03/13 06:45:46;;;;;;;15.43;8.70;;;;;;;0.40;38.43;100099.69;4918265;29;20258;-81
2022/03/13 06:48:15;;;;;;;20.13;11.67;;;;;;;0.51;38.09;100098.69;4928548;29;20278;-82
2022/03/13 06:50:42;;;;;;;17.80;11.00;;;;;;;0.54;37.97;100098.41;4917698;29;20237;-82
2022/03/13 06:53:10;;;;;;;15.13;9.90;;;;;;;0.72;37.45;100091.38;4923989;29;20241;-82
2022/03/13 06:55:37;;;;;;;30.03;16.67;;;;;;;0.85;37.11;100081.31;4915677;29;20238;-82
2022/03/13 06:58:05;;;;;;;21.67;14.13;;;;;;;0.96;37.18;100082.94;4903616;29;20301;-81
2022/03/13 07:00:32;;;;;;;11.47;8.20;;;;;;;1.12;36.58;100085.75;4923039;29;20227;-82
2022/03/13 07:03:00;;;;;;;10.17;7.90;;;;;;;1.17;37.15;100082.66;4914489;29;20231;-82
2022/03/13 07:05:28;;;;;;;8.57;7.33;;;;;;;1.36;36.38;100090.47;4915989;29;20243;-82
2022/03/13 07:07:57;;;;;;;11.00;7.70;;;;;;;1.45;36.65;100084.28;4917915;29;20221;-81
2022/03/13 07:10:24;;;;;;;10.57;7.47;;;;;;;1.46;36.23;100082.47;4923378;29;20230;-82
2022/03/13 07:12:52;;;;;;;9.53;7.50;;;;;;;1.52;36.54;100092.44;4917605;29;20327;-82
2022/03/13 07:15:21;;;;;;;12.27;7.67;;;;;;;1.64;36.05;100104.44;4926052;29;20255;-83
2022/03/13 07:17:48;;;;;;;11.47;7.50;;;;;;;1.64;36.22;100088.59;4923445;29;20243;-82
2022/03/13 07:20:15;;;;;;;10.67;7.70;;;;;;;1.81;35.50;100094.84;4934835;29;20246;-81
2022/03/13 07:22:44;;;;;;;11.37;7.83;;;;;;;1.97;35.20;100089.69;4925295;29;20238;-82
2022/03/13 07:25:15;;;;;;;11.03;7.80;;;;;;;2.09;34.91;100099.06;4927065;29;20722;-81
2022/03/13 07:27:42;;;;;;;10.50;8.07;;;;;;;2.18;35.08;100083.09;4924480;29;20258;-82
2022/03/13 07:30:14;;;;;;;13.27;7.90;;;;;;;2.36;34.59;100100.72;4927819;29;20379;-81
2022/03/13 07:32:44;;;;;;;13.43;8.10;;;;;;;2.36;34.92;100080.41;4921932;29;20294;-82
2022/03/13 07:35:12;;;;;;;10.83;8.50;;;;;;;2.52;34.59;100084.97;4931237;29;20237;-83
2022/03/13 07:37:42;;;;;;;10.90;7.90;;;;;;;2.67;33.63;100091.31;4925162;29;20266;-85
2022/03/13 07:40:09;;;;;;;10.87;8.47;;;;;;;2.89;33.82;100087.28;4920687;29;21876;-83
2022/03/13 07:42:37;;;;;;;11.43;7.67;;;;;;;2.95;33.71;100100.69;4928152;29;20262;-84
2022/03/13 07:45:05;;;;;;;11.53;7.97;;;;;;;3.02;33.95;100087.66;4931918;29;20233;-83
2022/03/13 07:47:32;;;;;;;10.93;7.50;;;;;;;3.10;34.10;100075.28;4932858;29;20234;-83
2022/03/13 07:50:02;;;;;;;11.53;8.40;;;;;;;3.24;33.41;100079.13;4914211;29;20237;-84
2022/03/13 07:52:29;;;;;;;10.13;7.47;;;;;;;3.41;32.73;100082.63;4918895;29;20242;-84
2022/03/13 07:55:00;;;;;;;10.80;8.30;;;;;;;3.53;33.29;100082.16;4926617;29;20258;-84
2022/03/13 07:57:28;;;;;;;11.30;8.50;;;;;;;3.61;32.78;100088.47;4931817;29;20241;-84
2022/03/13 07:59:56;;;;;;;11.07;8.10;;;;;;;3.74;32.75;100092.28;4914426;29;20238;-84
2022/03/13 08:02:23;;;;;;;11.00;7.53;;;;;;;3.92;30.70;100098.25;4919041;29;20231;-83
2022/03/13 08:04:50;;;;;;;9.33;8.00;;;;;;;4.02;31.49;100095.44;4930230;29;20256;-83
2022/03/13 08:07:18;;;;;;;9.93;8.00;;;;;;;4.11;30.00;100078.53;4932716;29;20262;-84
2022/03/13 08:09:46;;;;;;;8.93;7.27;;;;;;;4.19;30.24;100091.78;4932816;29;20654;-84
2022/03/13 08:12:12;;;;;;;10.27;7.47;;;;;;;4.34;29.88;100089.25;4932324;29;20302;-83
2022/03/13 08:14:39;;;;;;;9.90;7.67;;;;;;;4.40;29.52;100089.44;4932840;29;20234;-84
2022/03/13 08:17:06;;;;;;;8.90;7.53;;;;;;;4.47;29.58;100084.28;4932573;29;20237;-84
2022/03/13 08:19:34;;;;;;;9.57;8.10;;;;;;;4.59;28.79;100076.78;4933422;29;20234;-84
2022/03/13 08:22:03;;;;;;;12.27;8.23;;;;;;;4.64;29.72;100087.72;4931617;29;20255;-83
2022/03/13 08:24:30;;;;;;;10.37;7.97;;;;;;;4.76;29.39;100079.22;4933768;29;20230;-83
2022/03/13 08:26:57;;;;;;;12.50;8.80;;;;;;;4.83;28.39;100063.44;4938214;29;20290;-83
2022/03/13 08:29:30;;;;;;;11.13;8.23;;;;;;;4.92;28.86;100082.81;4938539;29;20236;-84
2022/03/13 08:31:57;;;;;;;11.40;9.47;;;;;;;4.99;28.42;100066.03;4938909;29;20222;-83
2022/03/13 08:34:28;;;;;;;15.67;13.17;;;;;;;5.10;28.63;100064.78;4937745;29;20281;-84
2022/03/13 08:36:59;;;;;;;10.43;9.33;;;;;;;5.15;28.85;100065.94;4939769;29;20237;-83
2022/03/13 08:39:26;;;;;;;10.33;7.43;;;;;;;5.29;28.36;100070.50;4939179;29;20210;-83
2022/03/13 08:41:53;;;;;;;9.67;7.97;;;;;;;5.37;28.00;100068.78;4940759;29;20246;-84
2022/03/13 08:44:20;;;;;;;9.93;8.00;;;;;;;5.45;29.14;100064.28;4940364;29;20313;-84
2022/03/13 08:46:48;;;;;;;12.33;8.50;;;;;;;5.55;28.65;100072.81;4941677;29;20262;-85
2022/03/13 08:49:16;;;;;;;9.97;7.97;;;;;;;5.58;28.52;100077.81;4940386;29;20218;-84
2022/03/13 08:51:43;;;;;;;10.07;7.97;;;;;;;5.58;28.71;100067.16;4941437;29;20242;-83
2022/03/13 08:54:10;;;;;;;10.30;7.83;;;;;;;5.69;28.24;100068.59;4940587;29;20246;-83
2022/03/13 08:56:38;;;;;;;11.87;8.30;;;;;;;5.80;27.93;100076.16;4940477;29;20233;-84
2022/03/13 08:59:05;;;;;;;10.20;8.00;;;;;;;5.82;28.28;100066.16;4938561;29;20262;-84
2022/03/13 09:01:32;;;;;;;10.77;8.13;;;;;;;5.97;28.82;100068.91;4936474;29;20238;-83
2022/03/13 09:04:02;;;;;;;10.63;7.97;;;;;;;6.03;27.63;100063.69;4933159;29;20294;-83
2022/03/13 09:06:29;;;;;;;12.60;9.10;;;;;;;6.10;27.56;100064.63;4936066;29;20234;-84
2022/03/13 09:08:57;;;;;;;11.43;8.80;;;;;;;6.29;27.99;100067.78;4936158;29;20302;-83
2022/03/13 09:11:24;;;;;;;11.77;10.37;;;;;;;6.24;27.77;100063.00;4935535;29;20241;-83
2022/03/13 09:13:51;;;;;;;20.17;17.23;;;;;;;6.34;28.05;100082.19;4939492;29;20242;-84
2022/03/13 09:16:19;;;;;;;23.70;20.63;;;;;;;6.39;27.59;100068.34;4937265;29;20293;-83
2022/03/13 09:18:47;;;;;;;12.53;9.50;;;;;;;6.47;27.23;100065.59;4938084;29;20202;-84
2022/03/13 09:21:46;;;;;;;11.33;8.97;;;;;;;6.54;27.74;100067.34;4928500;29;20234;-84
2022/03/13 09:24:22;;;;;;;9.03;7.97;;;;;;;6.58;26.53;100070.44;4942203;29;20182;-84
2022/03/13 09:26:51;;;;;;;9.73;7.87;;;;;;;6.66;27.28;100072.22;4943321;29;20199;-84
2022/03/13 09:29:39;;;;;;;10.83;8.07;;;;;;;6.82;27.37;100082.66;4943447;29;20639;-84
2022/03/13 09:32:31;;;;;;;9.90;8.03;;;;;;;6.84;26.62;100085.97;4943167;29;20186;-85
2022/03/13 09:35:18;;;;;;;9.30;7.97;;;;;;;6.99;26.46;100084.16;4915186;29;20191;-85
2022/03/13 09:38:37;;;;;;;9.47;7.90;;;;;;;7.32;26.13;100080.06;4944076;29;20193;-83
2022/03/13 09:41:18;;;;;;;9.07;7.70;;;;;;;7.39;26.30;100082.78;4900354;29;20238;-77
2022/03/13 09:43:45;;;;;;;9.73;8.30;;;;;;;7.53;26.71;100072.06;4899395;29;20230;-77
2022/03/13 09:46:15;;;;;;;12.10;8.03;;;;;;;7.63;26.05;100078.94;4899939;29;20246;-78
2022/03/13 09:48:43;;;;;;;10.00;8.30;;;;;;;7.71;26.01;100074.28;4899530;29;20238;-77
2022/03/13 09:51:10;;;;;;;8.77;7.40;;;;;;;7.68;26.29;100076.53;4899130;29;20262;-77
2022/03/13 09:53:37;;;;;;;9.43;8.00;;;;;;;7.77;25.90;100076.22;4899723;29;20282;-77
2022/03/13 09:56:05;;;;;;;9.83;7.37;;;;;;;7.78;25.34;100067.19;4899019;29;20218;-77
2022/03/13 09:58:32;;;;;;;8.57;7.67;;;;;;;7.91;26.28;100082.50;4900819;29;20270;-78
2022/03/13 10:01:00;;;;;;;9.27;8.00;;;;;;;8.11;25.52;100082.66;4904710;29;20266;-77
2022/03/13 10:03:27;;;;;;;10.47;7.40;;;;;;;8.02;25.28;100070.47;4892283;29;20254;-77
2022/03/13 10:05:55;;;;;;;11.20;7.97;;;;;;;8.10;25.77;100073.84;4897629;29;20855;-77
2022/03/13 10:08:30;;;;;;;11.23;8.13;;;;;;;8.12;25.10;100066.44;4898328;29;20242;-78
2022/03/13 10:10:58;;;;;;;10.83;8.90;;;;;;;8.23;25.30;100067.78;4900742;29;20237;-78
2022/03/13 10:13:42;;;;;;;10.90;8.60;;;;;;;8.42;24.16;100055.63;4900336;29;20230;-77
2022/03/13 10:16:19;;;;;;;9.00;8.10;;;;;;;8.46;23.85;100062.22;4895304;29;20267;-78
2022/03/13 10:18:46;;;;;;;10.13;7.67;;;;;;;8.64;23.67;100055.34;4899623;29;20317;-77
2022/03/13 10:21:17;;;;;;;8.50;7.17;;;;;;;8.75;23.34;100060.16;4899313;29;20277;-77
2022/03/13 10:23:47;;;;;;;9.50;7.03;;;;;;;8.87;23.22;100056.91;4918188;29;20222;-78
2022/03/13 10:26:16;;;;;;;9.70;7.10;;;;;;;9.10;22.37;100054.75;4902380;29;20309;-78
2022/03/13 10:28:43;;;;;;;7.70;6.90;;;;;;;9.08;22.37;100051.47;4903077;29;20259;-77
2022/03/13 10:31:15;;;;;;;11.07;7.13;;;;;;;8.99;22.40;100048.13;4899998;29;20733;-78
2022/03/13 10:33:55;;;;;;;10.53;7.30;;;;;;;8.97;22.20;100057.34;4898514;29;20325;-76
2022/03/13 10:36:34;;;;;;;8.93;6.63;;;;;;;9.03;22.24;100046.72;4897509;29;20265;-76
2022/03/13 10:39:04;;;;;;;8.57;7.17;;;;;;;9.09;22.21;100040.56;4899221;29;20726;-77
2022/03/13 10:41:45;;;;;;;8.67;6.83;;;;;;;9.18;22.46;100031.34;4896752;29;20246;-77
2022/03/13 10:44:22;;;;;;;11.30;7.63;;;;;;;9.29;22.16;100029.94;4899095;29;20254;-78
2022/03/13 10:47:03;;;;;;;8.50;7.07;;;;;;;9.42;22.15;100042.53;4900213;29;20241;-77
2022/03/13 10:49:41;;;;;;;9.33;7.07;;;;;;;9.52;22.73;100035.75;4900291;29;20238;-77
2022/03/13 10:52:31;;;;;;;9.23;7.20;;;;;;;9.58;22.47;100044.81;4902773;29;20317;-77
2022/03/13 10:55:18;;;;;;;8.50;7.60;;;;;;;9.75;22.31;100029.22;4900241;29;20243;-77
2022/03/13 10:57:58;;;;;;;9.23;7.57;;;;;;;9.65;22.31;100035.78;4900699;29;20281;-77
2022/03/13 11:00:25;;;;;;;9.93;6.93;;;;;;;9.65;22.36;100026.94;4902563;29;20230;-77
2022/03/13 11:02:53;;;;;;;8.60;7.33;;;;;;;9.80;22.01;100030.22;4898953;29;20254;-77
2022/03/13 11:05:20;;;;;;;10.20;7.30;;;;;;;9.86;22.15;100023.22;4903276;29;20226;-77
2022/03/13 11:07:52;;;;;;;9.07;7.53;;;;;;;9.87;21.96;100030.25;4898670;29;20294;-76
2022/03/13 11:10:19;;;;;;;8.30;7.10;;;;;;;9.93;21.68;100022.22;4903672;29;20241;-77
2022/03/13 11:12:48;;;;;;;10.57;7.60;;;;;;;9.92;21.42;100028.59;4901856;29;20278;-77
2022/03/13 11:15:16;;;;;;;9.87;6.90;;;;;;;9.94;21.75;100025.69;4903945;29;20243;-78
2022/03/13 11:17:43;;;;;;;8.20;7.13;;;;;;;10.10;21.52;100020.78;4902198;29;20242;-77
2022/03/13 11:20:11;;;;;;;9.83;7.97;;;;;;;10.21;21.90;100023.88;4903011;29;20671;-78
2022/03/13 11:22:38;;;;;;;10.30;7.57;;;;;;;10.32;20.94;100010.66;4905718;29;20232;-77
2022/03/13 11:25:07;;;;;;;11.83;9.03;;;;;;;10.25;21.06;100019.75;4901498;29;20260;-77
2022/03/13 11:27:36;;;;;;;7.40;6.70;;;;;;;10.27;20.83;100006.97;4905419;29;20293;-77
2022/03/13 11:30:05;;;;;;;8.93;6.90;;;;;;;10.38;21.24;100003.66;4903339;29;20325;-76
2022/03/13 11:32:49;;;;;;;8.27;7.37;;;;;;;10.28;21.31;100004.09;4903721;29;20308;-77